sensor_id;sensor_type;location;lat;lon;timestamp;P1;durP1;ratioP1;P2;durP2;ratioP2
21822;SDS011;11074;48.596;9.238;2022-11-09T00:00:52;9.10;;;5.38;;
21822;SDS011;11074;48.596;9.238;2022-11-09T00:03:18;8.93;;;5.43;;
21822;SDS011;11074;48.596;9.238;2022-11-09T00:05:52;8.68;;;5.45;;
21822;SDS011;11074;48.596;9.238;2022-11-09T00:08:20;9.40;;;5.82;;
21822;SDS011;11074;48.596;9.238;2022-11-09T00:10:46;9.25;;;5.20;;
21822;SDS011;11074;48.596;9.238;2022-11-09T00:13:11;7.15;;;4.78;;
21822;SDS011;11074;48.596;9.238;2022-11-09T00:15:37;9.23;;;5.65;;
21822;SDS011;11074;48.596;9.238;2022-11-09T00:18:03;9.10;;;5.00;;
21822;SDS011;11074;48.596;9.238;2022-11-09T00:20:28;10.65;;;5.32;;
21822;SDS011;11074;48.596;9.238;2022-11-09T00:22:54;10.55;;;5.45;;
21822;SDS011;11074;48.596;9.238;2022-11-09T00:25:21;7.60;;;5.07;;
21822;SDS011;11074;48.596;9.238;2022-11-09T00:27:46;8.63;;;5.20;;
21822;SDS011;11074;48.596;9.238;2022-11-09T00:30:12;8.05;;;4.70;;
21822;SDS011;11074;48.596;9.238;2022-11-09T00:32:38;9.98;;;5.10;;
21822;SDS011;11074;48.596;9.238;2022-11-09T00:35:04;7.55;;;5.03;;
21822;SDS011;11074;48.596;9.238;2022-11-09T00:37:30;8.90;;;5.35;;
21822;SDS011;11074;48.596;9.238;2022-11-09T00:39:56;9.50;;;5.18;;
21822;SDS011;11074;48.596;9.238;2022-11-09T00:42:22;8.80;;;4.55;;
21822;SDS011;11074;48.596;9.238;2022-11-09T00:44:47;7.60;;;5.15;;
21822;SDS011;11074;48.596;9.238;2022-11-09T00:47:13;7.40;;;4.80;;
21822;SDS011;11074;48.596;9.238;2022-11-09T00:49:39;8.57;;;5.45;;
21822;SDS011;11074;48.596;9.238;2022-11-09T00:52:04;7.80;;;5.05;;
21822;SDS011;11074;48.596;9.238;2022-11-09T00:54:30;7.72;;;5.18;;
21822;SDS011;11074;48.596;9.238;2022-11-09T00:56:56;10.07;;;5.82;;
21822;SDS011;11074;48.596;9.238;2022-11-09T00:59:21;6.72;;;4.70;;
21822;SDS011;11074;48.596;9.238;2022-11-09T01:01:48;9.20;;;5.55;;
21822;SDS011;11074;48.596;9.238;2022-11-09T01:04:13;9.35;;;5.70;;
21822;SDS011;11074;48.596;9.238;2022-11-09T01:06:39;8.10;;;5.13;;
21822;SDS011;11074;48.596;9.238;2022-11-09T01:09:05;7.88;;;5.05;;
21822;SDS011;11074;48.596;9.238;2022-11-09T01:11:30;6.78;;;4.88;;
21822;SDS011;11074;48.596;9.238;2022-11-09T01:13:57;7.30;;;5.20;;
21822;SDS011;11074;48.596;9.238;2022-11-09T01:16:24;8.02;;;5.03;;
21822;SDS011;11074;48.596;9.238;2022-11-09T01:18:51;7.07;;;4.68;;
21822;SDS011;11074;48.596;9.238;2022-11-09T01:21:20;7.90;;;4.88;;
21822;SDS011;11074;48.596;9.238;2022-11-09T01:23:46;8.10;;;5.10;;
21822;SDS011;11074;48.596;9.238;2022-11-09T01:26:12;9.40;;;5.15;;
21822;SDS011;11074;48.596;9.238;2022-11-09T01:28:40;9.25;;;5.70;;
21822;SDS011;11074;48.596;9.238;2022-11-09T01:31:07;9.88;;;5.30;;
21822;SDS011;11074;48.596;9.238;2022-11-09T01:33:40;7.13;;;5.10;;
21822;SDS011;11074;48.596;9.238;2022-11-09T01:36:08;9.10;;;4.97;;
21822;SDS011;11074;48.596;9.238;2022-11-09T01:38:43;8.55;;;5.30;;
21822;SDS011;11074;48.596;9.238;2022-11-09T01:41:13;10.20;;;5.43;;
21822;SDS011;11074;48.596;9.238;2022-11-09T01:46:56;8.52;;;5.32;;
21822;SDS011;11074;48.596;9.238;2022-11-09T01:52:34;8.57;;;5.15;;
21822;SDS011;11074;48.596;9.238;2022-11-09T01:55:06;7.88;;;5.60;;
21822;SDS011;11074;48.596;9.238;2022-11-09T01:57:44;8.82;;;5.10;;
21822;SDS011;11074;48.596;9.238;2022-11-09T02:00:27;30.20;;;6.38;;
21822;SDS011;11074;48.596;9.238;2022-11-09T02:03:00;13.43;;;5.78;;
21822;SDS011;11074;48.596;9.238;2022-11-09T02:05:35;21.42;;;6.13;;
21822;SDS011;11074;48.596;9.238;2022-11-09T02:08:04;11.48;;;5.88;;
21822;SDS011;11074;48.596;9.238;2022-11-09T02:10:43;8.45;;;5.38;;
21822;SDS011;11074;48.596;9.238;2022-11-09T02:13:28;10.85;;;5.25;;
21822;SDS011;11074;48.596;9.238;2022-11-09T02:15:56;8.95;;;5.32;;
21822;SDS011;11074;48.596;9.238;2022-11-09T02:18:23;9.68;;;5.50;;
21822;SDS011;11074;48.596;9.238;2022-11-09T02:20:49;8.98;;;5.25;;
21822;SDS011;11074;48.596;9.238;2022-11-09T02:23:18;7.30;;;4.97;;
21822;SDS011;11074;48.596;9.238;2022-11-09T02:25:47;7.55;;;4.57;;
21822;SDS011;11074;48.596;9.238;2022-11-09T02:28:20;7.20;;;5.10;;
21822;SDS011;11074;48.596;9.238;2022-11-09T02:30:48;7.65;;;5.10;;
21822;SDS011;11074;48.596;9.238;2022-11-09T02:33:17;9.25;;;5.53;;
21822;SDS011;11074;48.596;9.238;2022-11-09T02:35:43;8.80;;;5.30;;
21822;SDS011;11074;48.596;9.238;2022-11-09T02:38:12;9.38;;;5.30;;
21822;SDS011;11074;48.596;9.238;2022-11-09T02:40:40;10.05;;;5.15;;
21822;SDS011;11074;48.596;9.238;2022-11-09T02:43:12;8.75;;;5.57;;
21822;SDS011;11074;48.596;9.238;2022-11-09T02:45:41;9.48;;;5.25;;
21822;SDS011;11074;48.596;9.238;2022-11-09T02:48:07;9.30;;;5.07;;
21822;SDS011;11074;48.596;9.238;2022-11-09T02:50:33;8.65;;;4.78;;
21822;SDS011;11074;48.596;9.238;2022-11-09T02:53:00;7.72;;;4.90;;
21822;SDS011;11074;48.596;9.238;2022-11-09T02:55:27;9.30;;;5.50;;
21822;SDS011;11074;48.596;9.238;2022-11-09T02:57:52;5.90;;;4.68;;
21822;SDS011;11074;48.596;9.238;2022-11-09T03:00:18;9.23;;;5.45;;
21822;SDS011;11074;48.596;9.238;2022-11-09T03:02:44;6.47;;;4.68;;
21822;SDS011;11074;48.596;9.238;2022-11-09T03:05:09;8.30;;;4.78;;
21822;SDS011;11074;48.596;9.238;2022-11-09T03:07:35;8.55;;;4.78;;
21822;SDS011;11074;48.596;9.238;2022-11-09T03:10:01;6.95;;;4.50;;
21822;SDS011;11074;48.596;9.238;2022-11-09T03:12:27;6.57;;;4.43;;
21822;SDS011;11074;48.596;9.238;2022-11-09T03:14:53;6.57;;;4.82;;
21822;SDS011;11074;48.596;9.238;2022-11-09T03:17:24;9.05;;;5.18;;
21822;SDS011;11074;48.596;9.238;2022-11-09T03:19:51;8.48;;;4.63;;
21822;SDS011;11074;48.596;9.238;2022-11-09T03:22:17;8.57;;;4.93;;
21822;SDS011;11074;48.596;9.238;2022-11-09T03:24:44;8.18;;;4.88;;
21822;SDS011;11074;48.596;9.238;2022-11-09T03:27:10;8.15;;;4.60;;
21822;SDS011;11074;48.596;9.238;2022-11-09T03:29:36;7.05;;;4.60;;
21822;SDS011;11074;48.596;9.238;2022-11-09T03:32:02;9.60;;;4.82;;
21822;SDS011;11074;48.596;9.238;2022-11-09T03:34:28;6.68;;;4.38;;
21822;SDS011;11074;48.596;9.238;2022-11-09T03:36:54;7.20;;;4.47;;
21822;SDS011;11074;48.596;9.238;2022-11-09T03:39:20;7.63;;;4.40;;
21822;SDS011;11074;48.596;9.238;2022-11-09T03:41:45;8.95;;;4.53;;
21822;SDS011;11074;48.596;9.238;2022-11-09T03:44:11;7.75;;;4.22;;
21822;SDS011;11074;48.596;9.238;2022-11-09T03:46:36;7.15;;;4.57;;
21822;SDS011;11074;48.596;9.238;2022-11-09T03:49:02;6.53;;;4.65;;
21822;SDS011;11074;48.596;9.238;2022-11-09T03:51:28;6.85;;;4.70;;
21822;SDS011;11074;48.596;9.238;2022-11-09T03:53:54;7.93;;;4.85;;
21822;SDS011;11074;48.596;9.238;2022-11-09T03:56:19;7.10;;;4.50;;
21822;SDS011;11074;48.596;9.238;2022-11-09T03:58:45;7.82;;;4.63;;
21822;SDS011;11074;48.596;9.238;2022-11-09T04:01:11;12.10;;;5.07;;
21822;SDS011;11074;48.596;9.238;2022-11-09T04:03:36;10.85;;;5.40;;
21822;SDS011;11074;48.596;9.238;2022-11-09T04:06:02;7.20;;;4.80;;
21822;SDS011;11074;48.596;9.238;2022-11-09T04:08:28;7.50;;;5.40;;
21822;SDS011;11074;48.596;9.238;2022-11-09T04:10:54;8.93;;;5.45;;
21822;SDS011;11074;48.596;9.238;2022-11-09T04:13:20;8.23;;;5.13;;
21822;SDS011;11074;48.596;9.238;2022-11-09T04:15:45;7.85;;;5.35;;
21822;SDS011;11074;48.596;9.238;2022-11-09T04:18:13;8.77;;;5.47;;
21822;SDS011;11074;48.596;9.238;2022-11-09T04:20:41;7.75;;;5.45;;
21822;SDS011;11074;48.596;9.238;2022-11-09T04:23:08;7.93;;;5.38;;
21822;SDS011;11074;48.596;9.238;2022-11-09T04:25:38;8.05;;;5.50;;
21822;SDS011;11074;48.596;9.238;2022-11-09T04:28:06;9.32;;;5.40;;
21822;SDS011;11074;48.596;9.238;2022-11-09T04:30:35;8.75;;;5.82;;
21822;SDS011;11074;48.596;9.238;2022-11-09T04:33:03;8.35;;;5.55;;
21822;SDS011;11074;48.596;9.238;2022-11-09T04:35:29;10.10;;;6.40;;
21822;SDS011;11074;48.596;9.238;2022-11-09T04:37:58;9.77;;;6.50;;
21822;SDS011;11074;48.596;9.238;2022-11-09T04:40:29;15.00;;;7.55;;
21822;SDS011;11074;48.596;9.238;2022-11-09T04:43:01;8.55;;;6.82;;
21822;SDS011;11074;48.596;9.238;2022-11-09T04:45:28;9.52;;;7.03;;
21822;SDS011;11074;48.596;9.238;2022-11-09T04:47:56;10.23;;;6.70;;
21822;SDS011;11074;48.596;9.238;2022-11-09T04:50:23;9.30;;;6.70;;
21822;SDS011;11074;48.596;9.238;2022-11-09T04:52:50;8.07;;;6.35;;
21822;SDS011;11074;48.596;9.238;2022-11-09T04:55:16;11.32;;;6.53;;
21822;SDS011;11074;48.596;9.238;2022-11-09T04:57:41;7.22;;;6.05;;
21822;SDS011;11074;48.596;9.238;2022-11-09T05:00:07;8.27;;;5.90;;
21822;SDS011;11074;48.596;9.238;2022-11-09T05:02:33;9.25;;;6.82;;
21822;SDS011;11074;48.596;9.238;2022-11-09T05:04:59;8.98;;;6.32;;
21822;SDS011;11074;48.596;9.238;2022-11-09T05:07:25;7.60;;;6.03;;
21822;SDS011;11074;48.596;9.238;2022-11-09T05:09:50;7.63;;;5.45;;
21822;SDS011;11074;48.596;9.238;2022-11-09T05:12:16;10.10;;;6.38;;
21822;SDS011;11074;48.596;9.238;2022-11-09T05:14:43;8.13;;;5.53;;
21822;SDS011;11074;48.596;9.238;2022-11-09T05:17:08;8.23;;;5.80;;
21822;SDS011;11074;48.596;9.238;2022-11-09T05:19:34;9.85;;;6.38;;
21822;SDS011;11074;48.596;9.238;2022-11-09T05:22:00;7.97;;;5.68;;
21822;SDS011;11074;48.596;9.238;2022-11-09T05:24:45;10.55;;;6.30;;
21822;SDS011;11074;48.596;9.238;2022-11-09T05:27:11;7.97;;;5.90;;
21822;SDS011;11074;48.596;9.238;2022-11-09T05:29:37;9.32;;;6.63;;
21822;SDS011;11074;48.596;9.238;2022-11-09T05:32:02;8.48;;;6.20;;
21822;SDS011;11074;48.596;9.238;2022-11-09T05:34:31;9.88;;;6.90;;
21822;SDS011;11074;48.596;9.238;2022-11-09T05:36:57;9.88;;;6.78;;
21822;SDS011;11074;48.596;9.238;2022-11-09T05:39:22;10.80;;;6.57;;
21822;SDS011;11074;48.596;9.238;2022-11-09T05:41:48;10.52;;;6.50;;
21822;SDS011;11074;48.596;9.238;2022-11-09T05:44:14;10.38;;;7.82;;
21822;SDS011;11074;48.596;9.238;2022-11-09T05:46:42;12.90;;;8.75;;
21822;SDS011;11074;48.596;9.238;2022-11-09T05:49:08;11.48;;;8.23;;
21822;SDS011;11074;48.596;9.238;2022-11-09T05:51:34;12.05;;;7.30;;
21822;SDS011;11074;48.596;9.238;2022-11-09T05:53:59;10.25;;;7.00;;
21822;SDS011;11074;48.596;9.238;2022-11-09T05:56:25;11.82;;;7.38;;
21822;SDS011;11074;48.596;9.238;2022-11-09T05:58:51;11.32;;;6.50;;
21822;SDS011;11074;48.596;9.238;2022-11-09T06:01:16;9.45;;;6.60;;
21822;SDS011;11074;48.596;9.238;2022-11-09T06:03:43;8.45;;;6.13;;
21822;SDS011;11074;48.596;9.238;2022-11-09T06:06:09;8.60;;;6.35;;
21822;SDS011;11074;48.596;9.238;2022-11-09T06:08:37;10.05;;;6.80;;
21822;SDS011;11074;48.596;9.238;2022-11-09T06:11:04;14.38;;;12.48;;
21822;SDS011;11074;48.596;9.238;2022-11-09T06:13:33;10.13;;;7.55;;
21822;SDS011;11074;48.596;9.238;2022-11-09T06:16:00;9.07;;;5.93;;
21822;SDS011;11074;48.596;9.238;2022-11-09T06:18:29;9.18;;;6.40;;
21822;SDS011;11074;48.596;9.238;2022-11-09T06:20:57;9.13;;;6.00;;
21822;SDS011;11074;48.596;9.238;2022-11-09T06:23:25;8.43;;;5.90;;
21822;SDS011;11074;48.596;9.238;2022-11-09T06:26:26;10.05;;;6.50;;
21822;SDS011;11074;48.596;9.238;2022-11-09T06:28:45;11.57;;;6.57;;
21822;SDS011;11074;48.596;9.238;2022-11-09T06:31:11;10.25;;;6.32;;
21822;SDS011;11074;48.596;9.238;2022-11-09T06:33:40;10.95;;;7.15;;
21822;SDS011;11074;48.596;9.238;2022-11-09T06:36:06;10.38;;;6.55;;
21822;SDS011;11074;48.596;9.238;2022-11-09T06:38:33;11.88;;;6.90;;
21822;SDS011;11074;48.596;9.238;2022-11-09T06:40:59;9.23;;;6.70;;
21822;SDS011;11074;48.596;9.238;2022-11-09T06:43:25;10.45;;;6.30;;
21822;SDS011;11074;48.596;9.238;2022-11-09T06:45:52;9.43;;;6.22;;
21822;SDS011;11074;48.596;9.238;2022-11-09T06:48:18;9.68;;;6.65;;
21822;SDS011;11074;48.596;9.238;2022-11-09T06:50:45;8.63;;;6.32;;
21822;SDS011;11074;48.596;9.238;2022-11-09T06:53:12;9.15;;;6.60;;
21822;SDS011;11074;48.596;9.238;2022-11-09T06:55:40;8.32;;;6.32;;
21822;SDS011;11074;48.596;9.238;2022-11-09T06:58:08;10.23;;;6.88;;
21822;SDS011;11074;48.596;9.238;2022-11-09T07:00:39;9.90;;;6.40;;
21822;SDS011;11074;48.596;9.238;2022-11-09T07:03:06;9.75;;;7.20;;
21822;SDS011;11074;48.596;9.238;2022-11-09T07:05:35;9.70;;;6.78;;
21822;SDS011;11074;48.596;9.238;2022-11-09T07:08:03;10.45;;;7.20;;
21822;SDS011;11074;48.596;9.238;2022-11-09T07:10:29;8.80;;;6.32;;
21822;SDS011;11074;48.596;9.238;2022-11-09T07:12:56;10.35;;;6.47;;
21822;SDS011;11074;48.596;9.238;2022-11-09T07:15:22;11.98;;;6.90;;
21822;SDS011;11074;48.596;9.238;2022-11-09T07:17:49;9.55;;;6.50;;
21822;SDS011;11074;48.596;9.238;2022-11-09T07:20:14;9.95;;;6.45;;
21822;SDS011;11074;48.596;9.238;2022-11-09T07:22:40;11.43;;;6.47;;
21822;SDS011;11074;48.596;9.238;2022-11-09T07:25:07;9.13;;;5.95;;
21822;SDS011;11074;48.596;9.238;2022-11-09T07:27:36;9.73;;;6.30;;
21822;SDS011;11074;48.596;9.238;2022-11-09T07:30:01;10.48;;;6.50;;
21822;SDS011;11074;48.596;9.238;2022-11-09T07:32:28;11.25;;;6.07;;
21822;SDS011;11074;48.596;9.238;2022-11-09T07:34:57;7.95;;;6.38;;
21822;SDS011;11074;48.596;9.238;2022-11-09T07:37:23;8.35;;;6.22;;
21822;SDS011;11074;48.596;9.238;2022-11-09T07:39:49;8.80;;;6.40;;
21822;SDS011;11074;48.596;9.238;2022-11-09T07:42:14;9.10;;;6.25;;
21822;SDS011;11074;48.596;9.238;2022-11-09T07:44:40;24.40;;;15.50;;
21822;SDS011;11074;48.596;9.238;2022-11-09T07:47:06;14.80;;;9.85;;
21822;SDS011;11074;48.596;9.238;2022-11-09T07:49:32;10.25;;;6.82;;
21822;SDS011;11074;48.596;9.238;2022-11-09T07:51:57;11.25;;;7.18;;
21822;SDS011;11074;48.596;9.238;2022-11-09T07:54:23;8.98;;;6.22;;
21822;SDS011;11074;48.596;9.238;2022-11-09T07:56:49;7.75;;;5.30;;
21822;SDS011;11074;48.596;9.238;2022-11-09T07:59:15;9.05;;;4.88;;
21822;SDS011;11074;48.596;9.238;2022-11-09T08:01:41;8.32;;;4.20;;
21822;SDS011;11074;48.596;9.238;2022-11-09T08:04:07;5.50;;;3.65;;
21822;SDS011;11074;48.596;9.238;2022-11-09T08:06:33;5.07;;;3.30;;
21822;SDS011;11074;48.596;9.238;2022-11-09T08:08:58;8.07;;;3.40;;
21822;SDS011;11074;48.596;9.238;2022-11-09T08:11:25;7.00;;;3.08;;
21822;SDS011;11074;48.596;9.238;2022-11-09T08:13:51;3.55;;;2.53;;
21822;SDS011;11074;48.596;9.238;2022-11-09T08:16:17;3.13;;;2.13;;
21822;SDS011;11074;48.596;9.238;2022-11-09T08:18:43;5.50;;;2.70;;
21822;SDS011;11074;48.596;9.238;2022-11-09T08:21:09;4.28;;;2.50;;
21822;SDS011;11074;48.596;9.238;2022-11-09T08:23:34;5.65;;;2.70;;
21822;SDS011;11074;48.596;9.238;2022-11-09T08:26:04;3.67;;;2.67;;
21822;SDS011;11074;48.596;9.238;2022-11-09T08:28:30;4.55;;;3.05;;
21822;SDS011;11074;48.596;9.238;2022-11-09T08:30:59;5.22;;;3.05;;
21822;SDS011;11074;48.596;9.238;2022-11-09T08:33:29;4.63;;;2.55;;
21822;SDS011;11074;48.596;9.238;2022-11-09T08:36:07;4.80;;;2.85;;
21822;SDS011;11074;48.596;9.238;2022-11-09T08:38:38;4.10;;;2.65;;
21822;SDS011;11074;48.596;9.238;2022-11-09T08:41:05;5.07;;;3.05;;
21822;SDS011;11074;48.596;9.238;2022-11-09T08:43:31;5.53;;;3.28;;
21822;SDS011;11074;48.596;9.238;2022-11-09T08:45:58;7.03;;;4.15;;
21822;SDS011;11074;48.596;9.238;2022-11-09T08:48:23;4.97;;;4.35;;
21822;SDS011;11074;48.596;9.238;2022-11-09T08:50:51;5.68;;;4.20;;
21822;SDS011;11074;48.596;9.238;2022-11-09T08:53:19;7.10;;;4.75;;
21822;SDS011;11074;48.596;9.238;2022-11-09T08:55:45;5.53;;;4.25;;
21822;SDS011;11074;48.596;9.238;2022-11-09T08:58:10;7.22;;;4.68;;
21822;SDS011;11074;48.596;9.238;2022-11-09T09:00:36;8.68;;;4.32;;
21822;SDS011;11074;48.596;9.238;2022-11-09T09:03:05;6.45;;;4.80;;
21822;SDS011;11074;48.596;9.238;2022-11-09T09:05:31;7.03;;;5.10;;
21822;SDS011;11074;48.596;9.238;2022-11-09T09:07:59;9.00;;;5.90;;
21822;SDS011;11074;48.596;9.238;2022-11-09T09:10:27;7.93;;;5.57;;
21822;SDS011;11074;48.596;9.238;2022-11-09T09:12:53;9.73;;;5.18;;
21822;SDS011;11074;48.596;9.238;2022-11-09T09:15:19;12.05;;;5.05;;
21822;SDS011;11074;48.596;9.238;2022-11-09T09:17:46;6.50;;;4.00;;
21822;SDS011;11074;48.596;9.238;2022-11-09T09:20:12;4.57;;;3.20;;
21822;SDS011;11074;48.596;9.238;2022-11-09T09:22:38;7.18;;;4.22;;
21822;SDS011;11074;48.596;9.238;2022-11-09T09:25:04;6.22;;;3.45;;
21822;SDS011;11074;48.596;9.238;2022-11-09T09:27:30;5.95;;;3.67;;
21822;SDS011;11074;48.596;9.238;2022-11-09T09:29:56;6.47;;;3.13;;
21822;SDS011;11074;48.596;9.238;2022-11-09T09:32:22;4.78;;;3.00;;
21822;SDS011;11074;48.596;9.238;2022-11-09T09:34:49;3.78;;;2.63;;
21822;SDS011;11074;48.596;9.238;2022-11-09T09:37:15;4.10;;;2.55;;
21822;SDS011;11074;48.596;9.238;2022-11-09T09:39:41;4.13;;;2.33;;
21822;SDS011;11074;48.596;9.238;2022-11-09T09:42:11;4.50;;;2.45;;
21822;SDS011;11074;48.596;9.238;2022-11-09T09:44:44;5.35;;;2.53;;
21822;SDS011;11074;48.596;9.238;2022-11-09T09:47:28;4.63;;;2.20;;
21822;SDS011;11074;48.596;9.238;2022-11-09T09:50:15;4.88;;;2.10;;
21822;SDS011;11074;48.596;9.238;2022-11-09T09:52:49;3.70;;;2.15;;
21822;SDS011;11074;48.596;9.238;2022-11-09T09:55:28;2.50;;;1.63;;
21822;SDS011;11074;48.596;9.238;2022-11-09T09:58:05;2.22;;;1.30;;
21822;SDS011;11074;48.596;9.238;2022-11-09T10:00:56;2.20;;;1.20;;
21822;SDS011;11074;48.596;9.238;2022-11-09T10:03:40;2.00;;;1.00;;
21822;SDS011;11074;48.596;9.238;2022-11-09T10:06:10;2.15;;;1.17;;
21822;SDS011;11074;48.596;9.238;2022-11-09T10:09:19;2.50;;;1.08;;
21822;SDS011;11074;48.596;9.238;2022-11-09T10:15:12;1.90;;;1.40;;
21822;SDS011;11074;48.596;9.238;2022-11-09T10:23:54;2.47;;;1.58;;
21822;SDS011;11074;48.596;9.238;2022-11-09T10:26:43;3.17;;;1.92;;
21822;SDS011;11074;48.596;9.238;2022-11-09T10:29:25;4.10;;;1.60;;
21822;SDS011;11074;48.596;9.238;2022-11-09T10:32:14;3.50;;;1.60;;
21822;SDS011;11074;48.596;9.238;2022-11-09T10:37:38;3.45;;;1.30;;
21822;SDS011;11074;48.596;9.238;2022-11-09T10:42:33;4.05;;;2.08;;
21822;SDS011;11074;48.596;9.238;2022-11-09T10:45:10;3.22;;;1.90;;
21822;SDS011;11074;48.596;9.238;2022-11-09T10:47:54;5.88;;;1.67;;
21822;SDS011;11074;48.596;9.238;2022-11-09T10:52:48;3.83;;;1.90;;
21822;SDS011;11074;48.596;9.238;2022-11-09T10:55:24;3.95;;;1.90;;
21822;SDS011;11074;48.596;9.238;2022-11-09T10:57:53;3.70;;;1.90;;
21822;SDS011;11074;48.596;9.238;2022-11-09T11:00:25;3.40;;;2.05;;
21822;SDS011;11074;48.596;9.238;2022-11-09T11:02:51;3.80;;;2.08;;
21822;SDS011;11074;48.596;9.238;2022-11-09T11:05:20;4.00;;;1.75;;
21822;SDS011;11074;48.596;9.238;2022-11-09T11:07:51;3.30;;;1.90;;
21822;SDS011;11074;48.596;9.238;2022-11-09T11:10:20;5.30;;;2.40;;
21822;SDS011;11074;48.596;9.238;2022-11-09T11:12:51;3.83;;;2.00;;
21822;SDS011;11074;48.596;9.238;2022-11-09T11:15:43;3.42;;;2.17;;
21822;SDS011;11074;48.596;9.238;2022-11-09T11:18:22;3.63;;;2.30;;
21822;SDS011;11074;48.596;9.238;2022-11-09T11:21:05;3.83;;;1.83;;
21822;SDS011;11074;48.596;9.238;2022-11-09T11:23:38;3.72;;;2.00;;
21822;SDS011;11074;48.596;9.238;2022-11-09T11:26:20;5.80;;;2.35;;
21822;SDS011;11074;48.596;9.238;2022-11-09T11:29:00;16.52;;;8.05;;
21822;SDS011;11074;48.596;9.238;2022-11-09T11:31:36;14.40;;;5.32;;
21822;SDS011;11074;48.596;9.238;2022-11-09T11:34:04;7.22;;;3.47;;
21822;SDS011;11074;48.596;9.238;2022-11-09T11:36:45;9.20;;;4.18;;
21822;SDS011;11074;48.596;9.238;2022-11-09T11:51:13;3.83;;;2.42;;
21822;SDS011;11074;48.596;9.238;2022-11-09T11:56:47;5.97;;;3.05;;
21822;SDS011;11074;48.596;9.238;2022-11-09T12:08:25;40.15;;;14.55;;
21822;SDS011;11074;48.596;9.238;2022-11-09T12:14:12;6.90;;;4.10;;
21822;SDS011;11074;48.596;9.238;2022-11-09T12:16:52;6.88;;;4.38;;
21822;SDS011;11074;48.596;9.238;2022-11-09T12:19:48;4.30;;;2.83;;
21822;SDS011;11074;48.596;9.238;2022-11-09T12:22:38;5.07;;;2.90;;
21822;SDS011;11074;48.596;9.238;2022-11-09T12:39:19;5.78;;;3.38;;
21822;SDS011;11074;48.596;9.238;2022-11-09T12:42:12;4.35;;;2.90;;
21822;SDS011;11074;48.596;9.238;2022-11-09T12:47:52;4.95;;;3.13;;
21822;SDS011;11074;48.596;9.238;2022-11-09T12:50:22;7.70;;;3.00;;
21822;SDS011;11074;48.596;9.238;2022-11-09T12:52:50;4.65;;;3.10;;
21822;SDS011;11074;48.596;9.238;2022-11-09T12:55:18;4.68;;;2.63;;
21822;SDS011;11074;48.596;9.238;2022-11-09T12:58:18;4.53;;;2.45;;
21822;SDS011;11074;48.596;9.238;2022-11-09T13:00:55;2.67;;;1.65;;
21822;SDS011;11074;48.596;9.238;2022-11-09T13:03:27;2.50;;;1.33;;
21822;SDS011;11074;48.596;9.238;2022-11-09T13:08:56;2.83;;;1.65;;
21822;SDS011;11074;48.596;9.238;2022-11-09T13:11:47;3.15;;;1.52;;
21822;SDS011;11074;48.596;9.238;2022-11-09T13:17:00;3.55;;;1.77;;
21822;SDS011;11074;48.596;9.238;2022-11-09T13:24:49;2.92;;;1.65;;
21822;SDS011;11074;48.596;9.238;2022-11-09T13:38:17;6.28;;;3.80;;
21822;SDS011;11074;48.596;9.238;2022-11-09T13:40:57;8.73;;;5.70;;
21822;SDS011;11074;48.596;9.238;2022-11-09T13:43:27;6.40;;;3.90;;
21822;SDS011;11074;48.596;9.238;2022-11-09T13:48:50;4.90;;;3.38;;
21822;SDS011;11074;48.596;9.238;2022-11-09T13:51:37;7.65;;;5.53;;
21822;SDS011;11074;48.596;9.238;2022-11-09T13:57:03;2.55;;;1.73;;
21822;SDS011;11074;48.596;9.238;2022-11-09T13:59:32;4.53;;;1.83;;
21822;SDS011;11074;48.596;9.238;2022-11-09T14:02:19;7.45;;;2.67;;
21822;SDS011;11074;48.596;9.238;2022-11-09T14:04:47;3.60;;;2.33;;
21822;SDS011;11074;48.596;9.238;2022-11-09T14:16:20;3.35;;;1.85;;
21822;SDS011;11074;48.596;9.238;2022-11-09T14:21:54;2.30;;;1.42;;
21822;SDS011;11074;48.596;9.238;2022-11-09T14:24:23;1.83;;;1.30;;
21822;SDS011;11074;48.596;9.238;2022-11-09T14:29:33;4.32;;;1.40;;
21822;SDS011;11074;48.596;9.238;2022-11-09T14:38:13;2.85;;;1.17;;
21822;SDS011;11074;48.596;9.238;2022-11-09T14:40:44;6.35;;;1.40;;
21822;SDS011;11074;48.596;9.238;2022-11-09T14:46:13;4.82;;;2.92;;
21822;SDS011;11074;48.596;9.238;2022-11-09T14:49:02;3.38;;;2.25;;
21822;SDS011;11074;48.596;9.238;2022-11-09T14:54:09;11.30;;;7.45;;
21822;SDS011;11074;48.596;9.238;2022-11-09T14:56:38;10.40;;;7.07;;
21822;SDS011;11074;48.596;9.238;2022-11-09T14:59:07;11.02;;;7.07;;
21822;SDS011;11074;48.596;9.238;2022-11-09T15:01:38;6.57;;;4.70;;
21822;SDS011;11074;48.596;9.238;2022-11-09T15:04:14;10.07;;;5.35;;
21822;SDS011;11074;48.596;9.238;2022-11-09T15:06:52;7.15;;;5.00;;
21822;SDS011;11074;48.596;9.238;2022-11-09T15:09:43;6.07;;;3.90;;
21822;SDS011;11074;48.596;9.238;2022-11-09T15:12:15;7.90;;;5.65;;
21822;SDS011;11074;48.596;9.238;2022-11-09T15:14:47;6.78;;;3.70;;
21822;SDS011;11074;48.596;9.238;2022-11-09T15:22:51;4.35;;;3.17;;
21822;SDS011;11074;48.596;9.238;2022-11-09T15:25:21;3.88;;;2.60;;
21822;SDS011;11074;48.596;9.238;2022-11-09T15:30:38;5.30;;;3.60;;
21822;SDS011;11074;48.596;9.238;2022-11-09T15:35:48;5.93;;;2.58;;
21822;SDS011;11074;48.596;9.238;2022-11-09T15:38:44;5.30;;;3.33;;
21822;SDS011;11074;48.596;9.238;2022-11-09T15:41:22;5.38;;;2.97;;
21822;SDS011;11074;48.596;9.238;2022-11-09T15:43:49;7.07;;;4.22;;
21822;SDS011;11074;48.596;9.238;2022-11-09T15:46:17;6.68;;;5.07;;
21822;SDS011;11074;48.596;9.238;2022-11-09T15:48:52;7.38;;;5.22;;
21822;SDS011;11074;48.596;9.238;2022-11-09T15:51:21;6.78;;;5.00;;
21822;SDS011;11074;48.596;9.238;2022-11-09T15:53:47;6.07;;;4.53;;
21822;SDS011;11074;48.596;9.238;2022-11-09T15:56:20;8.13;;;6.00;;
21822;SDS011;11074;48.596;9.238;2022-11-09T15:58:48;6.80;;;4.82;;
21822;SDS011;11074;48.596;9.238;2022-11-09T16:01:16;5.72;;;3.85;;
21822;SDS011;11074;48.596;9.238;2022-11-09T16:03:42;6.60;;;3.40;;
21822;SDS011;11074;48.596;9.238;2022-11-09T16:06:08;5.30;;;3.30;;
21822;SDS011;11074;48.596;9.238;2022-11-09T16:08:38;8.50;;;4.43;;
21822;SDS011;11074;48.596;9.238;2022-11-09T16:11:04;7.97;;;4.30;;
21822;SDS011;11074;48.596;9.238;2022-11-09T16:13:32;8.60;;;5.18;;
21822;SDS011;11074;48.596;9.238;2022-11-09T16:16:04;6.65;;;4.60;;
21822;SDS011;11074;48.596;9.238;2022-11-09T16:18:32;6.97;;;4.43;;
21822;SDS011;11074;48.596;9.238;2022-11-09T16:23:35;8.02;;;5.13;;
21822;SDS011;11074;48.596;9.238;2022-11-09T16:26:05;8.63;;;5.22;;
21822;SDS011;11074;48.596;9.238;2022-11-09T16:28:40;8.05;;;5.05;;
21822;SDS011;11074;48.596;9.238;2022-11-09T16:31:10;6.25;;;4.88;;
21822;SDS011;11074;48.596;9.238;2022-11-09T16:33:37;9.05;;;4.72;;
21822;SDS011;11074;48.596;9.238;2022-11-09T16:36:05;6.45;;;4.07;;
21822;SDS011;11074;48.596;9.238;2022-11-09T16:38:39;7.55;;;4.38;;
21822;SDS011;11074;48.596;9.238;2022-11-09T16:41:09;6.47;;;4.80;;
21822;SDS011;11074;48.596;9.238;2022-11-09T16:43:37;11.63;;;4.60;;
21822;SDS011;11074;48.596;9.238;2022-11-09T16:46:05;6.80;;;4.43;;
21822;SDS011;11074;48.596;9.238;2022-11-09T16:48:31;9.68;;;5.18;;
21822;SDS011;11074;48.596;9.238;2022-11-09T16:50:58;7.70;;;5.32;;
21822;SDS011;11074;48.596;9.238;2022-11-09T16:53:24;9.45;;;5.60;;
21822;SDS011;11074;48.596;9.238;2022-11-09T16:55:51;8.13;;;5.22;;
21822;SDS011;11074;48.596;9.238;2022-11-09T16:58:16;10.40;;;6.18;;
21822;SDS011;11074;48.596;9.238;2022-11-09T17:00:46;12.20;;;6.85;;
21822;SDS011;11074;48.596;9.238;2022-11-09T17:03:14;11.20;;;7.20;;
21822;SDS011;11074;48.596;9.238;2022-11-09T17:05:40;12.63;;;7.45;;
21822;SDS011;11074;48.596;9.238;2022-11-09T17:08:07;10.60;;;7.53;;
21822;SDS011;11074;48.596;9.238;2022-11-09T17:10:39;10.95;;;7.60;;
21822;SDS011;11074;48.596;9.238;2022-11-09T17:13:10;10.20;;;7.15;;
21822;SDS011;11074;48.596;9.238;2022-11-09T17:15:43;10.10;;;6.68;;